McKittrick, Missouri
Current Conditions -  °F | °C
As of 6:35 AM on Wednesday 26 Nov 2014 (Local Time) from KFYG Reporting Station
Overcast Overcast  
Wind Chill: 25°   Ceiling: 11000
Heat Index: 32°   Visibility: 10mi
Dew Point: 25°   Wind: 8mph
Humidity: 75%   Direction: 130°SE
Pressure: 30.04"   Gusts: NA
Location:  38.5988°N, 91.4946°W
Report Text: KFYG 261235Z AUTO 13007KT 10SM SCT075 OVC110 00/M04 A3004 RMK AO2
Loading
Personal Weather Stations






























Interactive Weather Map New forecast layout! Learn more

10-Day Weather Forecast

Advertisements
Track Severe Weather on mobile